Aérodrome :
LOGIN :

S'inscrire | Disclaimer

   EN    FR    IT 

 










Légende :    VFR   VFR Marginal   IFR   IFR Intensif   IFR Très Intensif
Visi : 
Plafond : 
>= 8 km
>= 3000ft
5 à 8 km
1000 à 3000 ft
1500m à 5 km
500 à 1000 ft
800 à 1500m
200 à 500 ft
< 800m
< 200 ft
Symboles :   Orages  Brouillard  Fortes neiges  Fortes précipitations  Vent > 20 kt
SIGMETs :   Divers  Orages  Givrage  Turbulence  Onde Orograph.  Cendres Volcan.







- Altitude de l'aérodrome : 645 ft
- Code IATA : DLE
- Voir les cartes d'approche


LFGJ - Dole Tavaux

DERNIER METAR :
  • 221530Z AUTO VRB03KT CAVOK 19/01 Q1028 NOSIG

METARs EXPIRÉS :
  • 221500Z AUTO VRB03KT CAVOK 18/01 Q1028 NOSIG
  • 221430Z AUTO 21005KT 150V300 CAVOK 18/00 Q1028 NOSIG
  • 221400Z AUTO 24004KT 200V270 CAVOK 17/01 Q1028 NOSIG
  • 221330Z AUTO 24005KT 200V280 9000 NSC 17/01 Q1028 NOSIG
  • 221300Z AUTO 23005KT 170V270 CAVOK 16/02 Q1029 NOSIG

TAF TAF LFGJ
Valide du 22 à 15h jusqu'au 23 à 00h UTC


221400Z 2215/2224 22003KT CAVOK
PROB40
TEMPO 2220/2224 3000 BR
Pas de NOTAMs connus pour ce terrain.



MET'MAP, la Météo Aéronautique d'un coup d'oeil ! - Copyright ORBIFLY Décembre 2007 - Disclaimer

ORBIFLY MET'MAP TEAM :

Programmation & Développement : Alexandra Zaïnal
Conception & Développement : Baudouin d'Aumeries
Co-Programmation & Développement : Marc-Olivier Méhu
Soutien technique & logistique : Manuel Goepfert

Contact : metmap@orbifly.com




SOURCES & CREDITS :

   NOAA